createdAt,value
2023-02-16T00:25:45.121Z,8.80
2023-02-16T00:28:19.724Z,14.20
2023-02-16T00:30:50.572Z,11.30
2023-02-16T00:33:20.727Z,9.80
2023-02-16T00:35:49.614Z,9.40
2023-02-16T00:38:21.584Z,7.30
2023-02-16T00:40:51.294Z,7.40
2023-02-16T00:43:28.891Z,10.10
2023-02-16T00:45:58.159Z,10.30
2023-02-16T00:48:28.558Z,6.70
2023-02-16T00:50:57.606Z,6.60
2023-02-16T00:53:28.822Z,4.90
2023-02-16T00:55:58.192Z,7.70
2023-02-16T00:58:30.111Z,4.70
2023-02-16T01:01:06.475Z,7.60
2023-02-16T01:03:37.247Z,4.90
2023-02-16T01:06:25.852Z,4.80
2023-02-16T01:09:14.029Z,8.20
2023-02-16T01:11:43.162Z,9.50
2023-02-16T01:14:12.473Z,9.40
2023-02-16T01:16:43.694Z,10.30
2023-02-16T01:19:13.803Z,10.50
2023-02-16T01:21:43.701Z,11.40
2023-02-16T01:24:13.303Z,9.90
2023-02-16T01:26:48.036Z,10.90
2023-02-16T01:29:19.748Z,8.40
2023-02-16T01:31:51.315Z,8.20
2023-02-16T01:34:20.262Z,7.50
2023-02-16T01:36:50.314Z,9.20
2023-02-16T01:39:21.143Z,5.60
2023-02-16T01:42:37.387Z,5.80
2023-02-16T01:45:15.849Z,8.00
2023-02-16T01:47:57.208Z,5.10
2023-02-16T01:50:29.644Z,7.20
2023-02-16T01:53:05.040Z,7.20
2023-02-16T01:55:39.122Z,7.90
2023-02-16T01:58:33.074Z,7.50
2023-02-16T02:01:06.491Z,8.20
2023-02-16T02:03:53.923Z,7.80
2023-02-16T02:06:33.639Z,9.60
2023-02-16T02:09:28.633Z,8.60
2023-02-16T02:12:07.038Z,9.30
2023-02-16T02:14:42.355Z,9.40
2023-02-16T02:17:19.072Z,7.90
2023-02-16T02:20:15.833Z,9.70
2023-02-16T02:23:14.830Z,12.30
2023-02-16T02:26:11.285Z,8.00
2023-02-16T02:29:05.923Z,8.40
2023-02-16T02:32:05.147Z,10.30
2023-02-16T02:35:02.706Z,8.90
2023-02-16T02:38:03.572Z,10.60
2023-02-16T02:41:05.450Z,6.80
2023-02-16T02:44:06.081Z,11.80
2023-02-16T02:46:42.878Z,7.40
2023-02-16T02:49:11.811Z,6.20
2023-02-16T02:51:40.880Z,10.10
2023-02-16T02:54:46.372Z,7.60
2023-02-16T02:57:46.498Z,9.50
2023-02-16T03:00:40.870Z,10.50
2023-02-16T03:03:41.501Z,14.40
2023-02-16T03:06:14.137Z,12.90
2023-02-16T03:08:48.535Z,12.80
2023-02-16T03:11:43.314Z,10.50
2023-02-16T03:14:17.450Z,16.30
2023-02-16T03:17:13.916Z,7.70
2023-02-16T03:20:07.493Z,5.60
2023-02-16T03:22:59.837Z,7.60
2023-02-16T03:25:50.304Z,8.20
2023-02-16T03:28:39.760Z,8.60
2023-02-16T03:31:10.616Z,10.30
2023-02-16T03:33:41.002Z,10.90
2023-02-16T03:36:10.081Z,11.10
2023-02-16T03:38:40.474Z,11.70
2023-02-16T03:41:09.733Z,9.80
2023-02-16T03:43:40.310Z,9.80
2023-02-16T03:48:41.047Z,9.70
2023-02-16T03:51:10.031Z,7.60
2023-02-16T03:53:39.877Z,12.40
2023-02-16T03:56:08.630Z,9.20
2023-02-16T04:01:56.688Z,13.10
2023-02-16T04:04:25.659Z,9.70
2023-02-16T04:06:55.862Z,9.40
2023-02-16T04:09:27.094Z,10.50
2023-02-16T04:12:17.702Z,7.10
2023-02-16T04:14:47.029Z,8.60
2023-02-16T04:17:19.160Z,8.80
2023-02-16T04:19:53.037Z,7.70
2023-02-16T04:22:26.651Z,8.50
2023-02-16T04:25:01.796Z,8.10
2023-02-16T04:27:31.432Z,7.40
2023-02-16T04:30:00.640Z,8.90
2023-02-16T04:32:29.454Z,9.90
2023-02-16T04:34:58.264Z,6.90
2023-02-16T04:37:27.294Z,7.10
2023-02-16T04:39:56.199Z,8.40
2023-02-16T04:42:28.499Z,11.40
2023-02-16T04:44:57.761Z,7.90
2023-02-16T04:47:27.070Z,9.50
2023-02-16T04:49:55.899Z,9.80
2023-02-16T04:52:24.800Z,8.50
2023-02-16T04:54:55.608Z,11.30
2023-02-16T04:57:26.589Z,10.30
2023-02-16T04:59:57.455Z,17.20
2023-02-16T05:02:26.413Z,10.50
2023-02-16T05:04:55.275Z,16.30
2023-02-16T05:07:24.807Z,14.10
2023-02-16T05:09:53.775Z,9.40
2023-02-16T05:12:41.181Z,13.10
2023-02-16T05:15:09.860Z,14.30
2023-02-16T05:17:38.736Z,15.30
2023-02-16T05:20:07.923Z,17.20
2023-02-16T05:22:39.513Z,18.20
2023-02-16T05:25:08.682Z,21.70
2023-02-16T05:27:38.058Z,21.80
2023-02-16T05:30:07.807Z,17.10
2023-02-16T05:32:37.350Z,20.40
2023-02-16T05:35:06.918Z,15.70
2023-02-16T05:37:37.115Z,12.10
2023-02-16T05:40:06.654Z,18.90
2023-02-16T05:42:35.655Z,18.60
2023-02-16T05:45:04.752Z,12.80
2023-02-16T05:47:36.858Z,13.20
2023-02-16T05:50:06.763Z,13.40
2023-02-16T05:52:35.667Z,11.00
2023-02-16T05:55:05.170Z,13.10
2023-02-16T05:57:36.092Z,17.30
2023-02-16T06:00:06.052Z,15.00
2023-02-16T06:02:35.120Z,19.00
2023-02-16T06:05:04.007Z,16.70
2023-02-16T06:07:32.885Z,11.00
2023-02-16T06:10:02.431Z,11.80
2023-02-16T06:12:32.717Z,9.00
2023-02-16T06:15:02.767Z,10.50
2023-02-16T06:17:31.737Z,9.80
2023-02-16T06:20:00.916Z,13.20
2023-02-16T06:22:31.030Z,16.40
2023-02-16T06:25:04.553Z,14.10
2023-02-16T06:27:34.046Z,16.90
2023-02-16T06:30:03.514Z,10.70
2023-02-16T06:32:33.830Z,13.00
2023-02-16T06:35:02.873Z,11.80
2023-02-16T06:37:31.913Z,14.70
2023-02-16T06:40:00.709Z,13.40
2023-02-16T06:42:29.540Z,18.90
2023-02-16T06:45:00.710Z,14.80
2023-02-16T06:47:30.803Z,12.60
2023-02-16T06:49:59.918Z,10.10
2023-02-16T06:52:28.764Z,11.10
2023-02-16T06:54:57.500Z,11.50
2023-02-16T06:57:26.276Z,13.30
2023-02-16T06:59:56.550Z,11.10
2023-02-16T07:02:25.414Z,11.40
2023-02-16T07:04:54.870Z,11.10
2023-02-16T07:07:24.611Z,11.70
2023-02-16T07:09:53.503Z,14.60
2023-02-16T07:12:22.191Z,12.90
2023-02-16T07:14:59.870Z,12.50
2023-02-16T07:17:28.720Z,11.40
2023-02-16T07:19:59.877Z,14.30
2023-02-16T07:22:30.382Z,14.90
2023-02-16T07:25:00.867Z,20.30
2023-02-16T07:27:29.813Z,9.70
2023-02-16T07:29:59.189Z,16.20
2023-02-16T07:32:29.887Z,11.50
2023-02-16T07:34:59.225Z,13.70
2023-02-16T07:37:28.045Z,13.20
2023-02-16T07:39:57.530Z,30.00
2023-02-16T07:42:31.474Z,29.80
2023-02-16T07:45:00.408Z,10.60
2023-02-16T07:47:29.516Z,10.20
2023-02-16T07:49:58.927Z,17.90
2023-02-16T07:52:31.374Z,21.70
2023-02-16T07:55:00.763Z,10.30
2023-02-16T07:57:29.767Z,12.10
2023-02-16T07:59:58.603Z,10.10
2023-02-16T08:02:28.181Z,13.30
2023-02-16T08:04:59.150Z,22.80
2023-02-16T08:07:28.937Z,14.80
2023-02-16T08:09:57.693Z,8.60
2023-02-16T08:12:26.679Z,12.90
2023-02-16T08:14:55.604Z,16.50
2023-02-16T08:17:26.812Z,11.20
2023-02-16T08:19:56.280Z,13.40
2023-02-16T08:22:25.114Z,17.10
2023-02-16T08:24:56.358Z,11.40
2023-02-16T08:27:27.706Z,19.80
2023-02-16T08:29:56.793Z,21.00
2023-02-16T08:32:26.791Z,21.30
2023-02-16T08:35:13.036Z,10.50
2023-02-16T08:37:43.556Z,14.70
2023-02-16T08:40:12.896Z,11.40
2023-02-16T08:42:42.502Z,32.80
2023-02-16T08:45:11.399Z,11.30
2023-02-16T08:47:40.736Z,11.80
2023-02-16T08:50:11.440Z,15.20
2023-02-16T08:52:40.445Z,8.60
2023-02-16T08:55:10.639Z,11.90
2023-02-16T08:57:41.379Z,12.60
2023-02-16T09:00:29.269Z,14.90
2023-02-16T09:02:59.913Z,12.40
2023-02-16T09:05:28.587Z,14.30
2023-02-16T09:07:57.978Z,12.30
2023-02-16T09:10:27.472Z,19.50
2023-02-16T09:12:59.198Z,8.20
2023-02-16T09:15:29.108Z,17.60
2023-02-16T09:17:58.322Z,9.60
2023-02-16T09:20:27.808Z,9.00
2023-02-16T09:22:56.551Z,9.20
2023-02-16T09:25:26.116Z,11.70
2023-02-16T09:27:55.811Z,6.90
2023-02-16T09:30:24.661Z,8.60
2023-02-16T09:32:54.337Z,8.80
2023-02-16T09:35:23.319Z,6.60
2023-02-16T09:37:52.029Z,11.80
2023-02-16T09:40:21.126Z,7.90
2023-02-16T09:42:59.913Z,5.90
2023-02-16T09:45:29.938Z,7.80
2023-02-16T09:47:59.590Z,29.40
2023-02-16T09:50:52.619Z,10.00
2023-02-16T09:53:32.874Z,7.90
2023-02-16T09:56:27.643Z,5.90
2023-02-16T09:58:58.923Z,26.50
2023-02-16T10:01:36.744Z,6.00
2023-02-16T10:04:27.412Z,6.30
2023-02-16T10:07:21.303Z,5.30
2023-02-16T10:09:53.696Z,22.00
2023-02-16T10:12:27.312Z,18.60
2023-02-16T10:14:58.540Z,10.50
2023-02-16T10:17:37.898Z,5.50
2023-02-16T10:20:17.498Z,4.10
2023-02-16T10:23:23.392Z,7.30
2023-02-16T10:26:06.852Z,6.70
2023-02-16T10:28:50.964Z,3.10
2023-02-16T10:31:29.200Z,5.70
2023-02-16T10:34:23.068Z,7.80
2023-02-16T10:37:10.507Z,13.00
2023-02-16T10:39:46.310Z,7.20
2023-02-16T10:42:46.881Z,8.00
2023-02-16T10:45:30.362Z,6.40
2023-02-16T10:50:39.067Z,8.10
2023-02-16T10:53:19.082Z,8.30
2023-02-16T10:55:49.469Z,14.10
2023-02-16T10:58:25.019Z,10.80
2023-02-16T11:01:22.729Z,8.40
2023-02-16T11:03:53.660Z,7.10
2023-02-16T11:06:26.686Z,9.60
2023-02-16T11:09:00.289Z,5.30
2023-02-16T11:11:39.430Z,11.60
2023-02-16T11:14:22.514Z,13.90
2023-02-16T11:17:12.911Z,9.70
2023-02-16T11:20:02.449Z,12.20
2023-02-16T11:22:34.320Z,8.70
2023-02-16T11:25:18.256Z,7.00
2023-02-16T11:27:58.728Z,6.50
2023-02-16T11:30:45.556Z,12.10
2023-02-16T11:33:23.764Z,5.80
2023-02-16T11:35:53.011Z,5.20
2023-02-16T11:38:29.574Z,10.80
2023-02-16T11:40:59.945Z,5.00
2023-02-16T11:43:31.370Z,7.00
2023-02-16T11:46:13.572Z,6.90
2023-02-16T11:48:42.645Z,10.00
2023-02-16T11:51:12.480Z,9.60
2023-02-16T11:53:42.850Z,7.20
2023-02-16T11:56:25.689Z,8.60
2023-02-16T11:59:20.968Z,9.60
2023-02-16T12:02:00.337Z,9.10
2023-02-16T12:04:44.939Z,7.00
2023-02-16T12:07:36.166Z,7.10
2023-02-16T12:10:21.235Z,18.80
2023-02-16T12:13:26.077Z,12.20
2023-02-16T12:15:57.590Z,7.20
2023-02-16T12:19:01.135Z,7.90
2023-02-16T12:21:54.945Z,7.70
2023-02-16T12:25:04.145Z,6.10
2023-02-16T12:27:59.827Z,12.60
2023-02-16T12:30:37.102Z,6.60
2023-02-16T12:33:42.441Z,4.60
2023-02-16T12:36:39.910Z,10.50
2023-02-16T12:39:42.843Z,8.00
2023-02-16T12:42:31.294Z,6.30
2023-02-16T12:45:13.870Z,6.50
2023-02-16T12:47:50.365Z,5.30
2023-02-16T12:50:25.181Z,11.10
2023-02-16T12:53:27.691Z,9.00
2023-02-16T12:56:02.597Z,9.30
2023-02-16T12:58:41.130Z,11.10
2023-02-16T13:01:41.736Z,7.20
2023-02-16T13:04:55.793Z,8.80
2023-02-16T13:07:33.243Z,12.20
2023-02-16T13:10:17.552Z,10.10
2023-02-16T13:13:12.142Z,21.40
2023-02-16T13:15:44.059Z,9.70
2023-02-16T13:18:21.464Z,7.90
2023-02-16T13:21:04.691Z,15.80
2023-02-16T13:23:52.262Z,6.20
2023-02-16T13:26:37.579Z,7.50
2023-02-16T13:29:37.796Z,9.00
2023-02-16T13:32:23.046Z,15.70
2023-02-16T13:35:28.033Z,7.80
2023-02-16T14:50:08.974Z,12.20
2023-02-16T15:22:29.717Z,22.20
2023-02-16T16:15:00.969Z,17.90
2023-02-16T17:16:48.487Z,21.00
2023-02-16T17:19:54.212Z,21.90
2023-02-16T19:24:42.868Z,58.30
2023-02-16T19:27:14.534Z,71.60
2023-02-16T19:32:48.502Z,53.30
2023-02-16T19:35:21.464Z,41.50
2023-02-16T20:41:56.897Z,18.80
2023-02-16T20:48:38.355Z,16.90
2023-02-16T20:51:08.142Z,20.10
2023-02-16T20:53:38.337Z,22.90
2023-02-16T20:56:12.797Z,22.80
2023-02-16T20:58:42.416Z,19.90
2023-02-16T21:01:21.118Z,21.90
2023-02-16T21:03:50.619Z,16.90
2023-02-16T21:06:19.996Z,19.30
2023-02-16T21:08:49.734Z,17.30
2023-02-16T21:11:18.864Z,23.40
2023-02-16T21:13:47.878Z,18.20
2023-02-16T21:16:17.654Z,18.10
2023-02-16T21:18:46.813Z,13.90
2023-02-16T21:21:16.023Z,13.20
2023-02-16T21:23:47.057Z,12.20
2023-02-16T21:26:17.017Z,14.80
2023-02-16T21:28:46.124Z,13.60
2023-02-16T21:31:17.848Z,14.60
2023-02-16T21:33:47.656Z,12.50
2023-02-16T21:36:19.251Z,9.30
2023-02-16T21:38:49.083Z,8.20
2023-02-16T21:45:06.979Z,8.10
2023-02-16T21:47:56.440Z,8.70
2023-02-16T21:50:38.145Z,8.80
2023-02-16T21:53:07.803Z,9.60
2023-02-16T21:55:56.720Z,11.20
2023-02-16T21:58:29.478Z,6.90
2023-02-16T22:01:48.930Z,7.70
2023-02-16T22:04:22.764Z,11.80
2023-02-16T22:23:52.093Z,14.90
2023-02-16T22:26:27.420Z,12.30
2023-02-16T22:29:09.580Z,13.40
2023-02-16T22:31:44.887Z,16.70
2023-02-16T22:34:16.747Z,19.20
2023-02-16T22:36:47.028Z,15.90
2023-02-16T22:39:17.463Z,16.10
2023-02-16T22:41:46.883Z,15.70
2023-02-16T22:44:19.071Z,15.60
2023-02-16T22:46:48.675Z,23.50
2023-02-16T22:49:21.142Z,21.90
2023-02-16T22:51:51.151Z,35.10
2023-02-16T22:54:26.994Z,25.00
2023-02-16T22:57:03.895Z,20.60
2023-02-16T22:59:43.174Z,18.50
2023-02-16T23:02:13.656Z,22.80
2023-02-16T23:04:47.002Z,19.30
2023-02-16T23:07:16.591Z,19.20
2023-02-16T23:09:47.107Z,22.10
2023-02-16T23:12:18.195Z,21.40
2023-02-16T23:14:47.842Z,17.40
2023-02-16T23:17:19.473Z,17.80
2023-02-16T23:19:54.946Z,18.90
2023-02-16T23:22:31.121Z,18.60
2023-02-16T23:25:19.975Z,18.90
2023-02-16T23:27:52.422Z,19.50
2023-02-16T23:30:24.561Z,16.60
2023-02-16T23:32:54.211Z,17.40
2023-02-16T23:35:23.711Z,19.30
2023-02-16T23:37:53.090Z,22.00
2023-02-16T23:40:22.650Z,19.30
2023-02-16T23:42:52.101Z,19.90
2023-02-16T23:45:21.370Z,23.80
2023-02-16T23:47:50.490Z,16.60
2023-02-16T23:50:20.141Z,17.50
2023-02-16T23:52:49.283Z,20.40
2023-02-16T23:55:19.196Z,17.20
2023-02-16T23:57:52.920Z,18.40
